createdAt,value
2019-03-13T00:01:45.453Z,0.67
2019-03-13T00:07:36.141Z,0.63
2019-03-13T00:10:17.706Z,0.60
2019-03-13T00:12:59.160Z,0.80
2019-03-13T00:15:40.787Z,1.57
2019-03-13T00:18:22.146Z,0.97
2019-03-13T00:21:03.356Z,0.60
2019-03-13T00:23:44.622Z,0.70
2019-03-13T00:26:26.221Z,0.80
2019-03-13T00:29:49.345Z,0.60
2019-03-13T00:44:42.811Z,1.07
2019-03-13T00:47:31.760Z,0.80
2019-03-13T00:50:01.849Z,0.90
2019-03-13T00:52:31.669Z,0.70
2019-03-13T00:55:01.439Z,0.53
2019-03-13T00:57:31.559Z,0.60
2019-03-13T01:00:01.345Z,0.80
2019-03-13T01:02:39.336Z,1.23
2019-03-13T01:05:37.982Z,1.00
2019-03-13T01:08:09.248Z,0.70
2019-03-13T01:10:38.981Z,0.77
2019-03-13T01:13:08.755Z,0.60
2019-03-13T01:15:38.795Z,1.10
2019-03-13T01:18:08.581Z,0.60
2019-03-13T01:20:38.365Z,0.50
2019-03-13T01:23:08.393Z,0.90
2019-03-13T01:25:38.235Z,0.77
2019-03-13T01:28:07.938Z,0.73
2019-03-13T01:30:48.605Z,0.53
2019-03-13T01:33:18.374Z,0.90
2019-03-13T01:35:58.245Z,0.60
2019-03-13T01:38:27.983Z,0.60
2019-03-13T01:40:58.100Z,0.93
2019-03-13T01:43:27.791Z,0.60
2019-03-13T01:45:57.598Z,0.73
2019-03-13T01:48:27.406Z,0.77
2019-03-13T01:50:57.142Z,0.73
2019-03-13T01:53:27.232Z,0.50
2019-03-13T01:55:56.931Z,1.07
2019-03-13T01:58:26.626Z,0.60
2019-03-13T02:00:56.623Z,0.70
2019-03-13T02:03:26.267Z,0.67
2019-03-13T02:05:55.940Z,0.50
2019-03-13T02:08:25.973Z,1.00
2019-03-13T02:10:55.720Z,1.10
2019-03-13T02:13:25.417Z,0.70
2019-03-13T02:15:55.370Z,0.60
2019-03-13T02:18:25.072Z,0.50
2019-03-13T02:20:54.770Z,0.70
2019-03-13T02:23:24.755Z,0.70
2019-03-13T02:25:54.775Z,0.73
2019-03-13T02:28:24.431Z,0.60
2019-03-13T02:30:54.538Z,0.77
2019-03-13T02:33:24.190Z,0.53
2019-03-13T02:35:53.871Z,0.97
2019-03-13T02:38:42.569Z,0.70
2019-03-13T02:41:45.293Z,0.70
2019-03-13T02:47:22.426Z,1.00
2019-03-13T02:56:01.122Z,0.70
2019-03-13T02:58:51.482Z,1.00
2019-03-13T03:01:58.972Z,1.00
2019-03-13T03:04:47.792Z,1.00
2019-03-13T03:10:18.685Z,0.80
2019-03-13T03:13:00.390Z,0.73
2019-03-13T03:15:41.105Z,0.90
2019-03-13T03:18:22.511Z,1.83
2019-03-13T03:20:52.216Z,0.63
2019-03-13T03:29:49.405Z,0.83
2019-03-13T03:32:19.146Z,0.90
2019-03-13T03:35:07.955Z,0.80
2019-03-13T03:37:56.731Z,0.77
2019-03-13T03:40:45.440Z,0.83
2019-03-13T03:46:34.940Z,0.90
2019-03-13T03:49:23.668Z,0.80
2019-03-13T03:52:12.280Z,1.00
2019-03-13T03:55:00.939Z,1.17
2019-03-13T03:57:49.602Z,0.93
2019-03-13T04:00:38.333Z,0.70
2019-03-13T04:06:17.613Z,1.07
2019-03-13T04:09:06.982Z,0.73
2019-03-13T04:11:55.929Z,0.90
2019-03-13T04:14:26.868Z,1.37
2019-03-13T04:17:15.652Z,0.90
2019-03-13T04:20:04.592Z,1.00
2019-03-13T04:22:53.310Z,0.90
2019-03-13T04:25:41.972Z,1.10
2019-03-13T04:28:30.764Z,1.30
2019-03-13T04:31:19.688Z,1.10
2019-03-13T04:33:49.501Z,0.83
2019-03-13T04:36:19.557Z,1.13
2019-03-13T04:38:49.247Z,0.67
2019-03-13T04:41:19.146Z,1.27
2019-03-13T04:43:49.125Z,1.00
2019-03-13T04:46:18.870Z,1.97
2019-03-13T04:48:48.542Z,1.10
2019-03-13T04:51:18.645Z,1.73
2019-03-13T04:53:48.295Z,1.37
2019-03-13T04:56:18.107Z,1.50
2019-03-13T04:58:48.068Z,1.20
2019-03-13T05:01:17.866Z,1.00
2019-03-13T05:03:47.663Z,1.20
2019-03-13T05:06:23.123Z,1.33
2019-03-13T05:09:13.498Z,1.30
2019-03-13T05:11:43.500Z,0.90
2019-03-13T05:14:13.200Z,1.07
2019-03-13T05:16:43.033Z,2.30
2019-03-13T05:19:12.725Z,1.50
2019-03-13T05:21:42.414Z,1.27
2019-03-13T05:24:12.478Z,0.70
2019-03-13T05:26:42.176Z,0.90
2019-03-13T05:29:11.963Z,1.33
2019-03-13T05:31:41.681Z,1.10
2019-03-13T05:34:11.489Z,1.13
2019-03-13T05:36:41.478Z,1.20
2019-03-13T05:39:11.191Z,1.60
2019-03-13T05:41:40.879Z,1.00
2019-03-13T05:44:10.858Z,1.33
2019-03-13T05:46:40.577Z,1.27
2019-03-13T05:49:10.340Z,1.37
2019-03-13T05:51:43.267Z,1.73
2019-03-13T05:54:13.002Z,1.57
2019-03-13T05:56:42.804Z,0.90
2019-03-13T05:59:12.466Z,0.80
2019-03-13T06:01:42.147Z,1.23
2019-03-13T06:04:12.166Z,1.13
2019-03-13T06:06:41.823Z,1.10
2019-03-13T06:09:11.597Z,1.20
2019-03-13T06:11:41.640Z,1.30
2019-03-13T06:14:11.383Z,0.90
2019-03-13T06:16:41.109Z,1.10
2019-03-13T06:19:12.798Z,1.20
2019-03-13T06:21:42.446Z,1.00
2019-03-13T06:24:12.178Z,2.40
2019-03-13T06:26:42.169Z,1.17
2019-03-13T06:29:11.901Z,1.10
2019-03-13T06:31:41.704Z,1.93
2019-03-13T06:34:11.797Z,1.20
2019-03-13T06:36:41.571Z,1.17
2019-03-13T06:39:11.359Z,1.90
2019-03-13T06:41:41.397Z,1.07
2019-03-13T06:44:11.068Z,1.70
2019-03-13T06:46:40.881Z,1.30
2019-03-13T06:52:18.578Z,1.53
2019-03-13T06:55:07.335Z,1.10
2019-03-13T06:57:37.218Z,1.30
2019-03-13T07:00:26.985Z,1.63
2019-03-13T07:03:17.035Z,1.07
2019-03-13T07:06:24.613Z,1.20
2019-03-13T07:09:02.740Z,1.60
2019-03-13T07:11:51.533Z,1.30
2019-03-13T07:14:59.241Z,1.20
2019-03-13T07:18:06.762Z,1.13
2019-03-13T07:20:57.686Z,0.93
2019-03-13T07:24:05.190Z,1.50
2019-03-13T07:27:02.602Z,1.70
2019-03-13T07:30:00.387Z,0.90
2019-03-13T07:32:50.479Z,1.33
2019-03-13T07:35:39.327Z,1.07
2019-03-13T07:38:46.940Z,1.30
2019-03-13T07:41:54.546Z,1.13
2019-03-13T07:44:43.173Z,1.20
2019-03-13T07:47:50.881Z,1.30
2019-03-13T07:50:39.450Z,1.73
2019-03-13T07:53:46.982Z,1.40
2019-03-13T07:56:35.564Z,1.23
2019-03-13T07:59:43.059Z,1.60
2019-03-13T08:05:19.650Z,1.07
2019-03-13T08:08:08.193Z,1.53
2019-03-13T08:11:15.754Z,1.93
2019-03-13T08:14:04.439Z,2.60
2019-03-13T08:17:13.650Z,1.37
2019-03-13T08:20:02.249Z,1.83
2019-03-13T08:22:51.919Z,1.10
2019-03-13T08:25:59.473Z,1.80
2019-03-13T08:28:48.318Z,1.33
2019-03-13T08:31:36.931Z,1.30
2019-03-13T08:34:25.825Z,1.40
2019-03-13T08:37:14.358Z,1.00
2019-03-13T08:40:22.045Z,1.50
2019-03-13T08:43:10.585Z,1.53
2019-03-13T08:45:59.443Z,1.30
2019-03-13T08:49:07.055Z,0.80
2019-03-13T08:51:57.167Z,1.10
2019-03-13T08:54:54.831Z,1.40
2019-03-13T08:57:29.986Z,1.30
2019-03-13T09:00:27.816Z,1.37
2019-03-13T09:03:35.283Z,1.50
2019-03-13T09:06:12.739Z,1.40
2019-03-13T09:09:00.964Z,1.67
2019-03-13T09:11:48.101Z,1.40
2019-03-13T09:14:36.970Z,1.00
2019-03-13T09:17:24.146Z,1.10
2019-03-13T09:20:01.071Z,1.00
2019-03-13T09:23:07.646Z,1.20
2019-03-13T09:25:57.754Z,1.10
2019-03-13T09:28:46.466Z,1.20
2019-03-13T09:31:32.299Z,1.60
2019-03-13T09:34:17.863Z,1.57
2019-03-13T09:37:03.005Z,1.27
2019-03-13T09:40:03.731Z,0.80
2019-03-13T09:42:51.047Z,1.30
2019-03-13T09:45:37.044Z,1.30
2019-03-13T09:48:28.690Z,1.73
2019-03-13T09:51:20.313Z,1.07
2019-03-13T09:54:00.862Z,1.07
2019-03-13T09:56:47.926Z,0.83
2019-03-13T09:59:43.568Z,0.93
2019-03-13T10:02:35.874Z,1.00
2019-03-13T10:05:23.237Z,0.90
2019-03-13T10:08:14.606Z,1.03
2019-03-13T10:11:01.713Z,1.50
2019-03-13T10:13:50.318Z,1.20
2019-03-13T10:16:45.139Z,1.00
2019-03-13T10:19:45.757Z,1.00
2019-03-13T10:22:21.153Z,1.37
2019-03-13T10:25:15.546Z,1.00
2019-03-13T10:27:51.349Z,1.30
2019-03-13T10:30:31.986Z,1.00
2019-03-13T10:33:12.570Z,1.20
2019-03-13T10:36:13.341Z,1.20
2019-03-13T10:39:20.249Z,0.87
2019-03-13T10:42:08.469Z,0.93
2019-03-13T10:44:50.261Z,0.80
2019-03-13T10:47:37.634Z,1.57
2019-03-13T10:50:36.189Z,0.80
2019-03-13T10:53:31.511Z,1.30
2019-03-13T10:56:32.257Z,1.40
2019-03-13T10:59:21.273Z,0.90
2019-03-13T11:02:09.090Z,1.03
2019-03-13T11:05:09.653Z,1.23
2019-03-13T11:07:49.578Z,0.70
2019-03-13T11:10:46.068Z,0.80
2019-03-13T11:13:31.706Z,1.00
2019-03-13T11:16:19.027Z,0.97
2019-03-13T11:19:11.982Z,0.90
2019-03-13T11:22:03.428Z,1.00
2019-03-13T11:24:55.465Z,1.03
2019-03-13T11:27:42.252Z,0.80
2019-03-13T11:30:32.207Z,0.80
2019-03-13T11:33:17.669Z,1.00
2019-03-13T11:35:59.835Z,1.73
2019-03-13T11:38:44.426Z,1.17
2019-03-13T11:41:33.352Z,0.80
2019-03-13T11:44:28.244Z,0.80
2019-03-13T11:47:21.022Z,1.00
2019-03-13T11:50:09.695Z,0.90
2019-03-13T11:52:58.614Z,0.80
2019-03-13T11:55:47.214Z,1.40
2019-03-13T11:58:42.182Z,1.23
2019-03-13T12:01:46.307Z,0.90
2019-03-13T12:04:31.400Z,0.80
2019-03-13T12:07:16.259Z,0.90
2019-03-13T12:10:08.128Z,0.60
2019-03-13T12:12:51.738Z,0.73
2019-03-13T12:15:29.799Z,1.43
2019-03-13T12:18:24.266Z,0.57
2019-03-13T12:21:12.837Z,0.50
2019-03-13T12:23:58.437Z,1.00
2019-03-13T12:26:56.408Z,0.60
2019-03-13T12:29:36.923Z,0.50
2019-03-13T12:32:28.108Z,0.60
2019-03-13T12:35:16.793Z,0.70
2019-03-13T12:37:56.875Z,0.70
2019-03-13T12:40:54.358Z,1.27
2019-03-13T12:43:42.974Z,1.03
2019-03-13T12:46:24.283Z,0.90
2019-03-13T12:49:19.406Z,0.83
2019-03-13T12:52:14.041Z,0.87
2019-03-13T12:55:13.021Z,0.80
2019-03-13T12:58:06.814Z,0.90
2019-03-13T13:01:08.133Z,2.33
2019-03-13T13:04:02.562Z,1.20
2019-03-13T13:06:57.479Z,1.13
2019-03-13T13:09:40.183Z,1.17
2019-03-13T13:12:27.706Z,1.30
2019-03-13T13:15:16.392Z,0.83
2019-03-13T13:18:03.964Z,1.20
2019-03-13T13:20:33.924Z,1.07
2019-03-13T13:23:03.953Z,1.33
2019-03-13T13:25:33.929Z,2.17
2019-03-13T13:28:03.716Z,1.20
2019-03-13T13:30:34.783Z,1.47
2019-03-13T13:33:05.685Z,0.90
2019-03-13T13:35:35.532Z,1.47
2019-03-13T13:38:05.442Z,1.70
2019-03-13T13:40:35.373Z,1.30
2019-03-13T13:43:06.597Z,1.90
2019-03-13T13:45:47.762Z,1.10
2019-03-13T13:48:18.813Z,1.97
2019-03-13T13:50:48.623Z,1.30
2019-03-13T13:53:18.375Z,1.87
2019-03-13T13:55:48.749Z,1.50
2019-03-13T13:58:18.588Z,1.50
2019-03-13T14:00:48.328Z,1.17
2019-03-13T14:03:18.539Z,1.40
2019-03-13T14:05:48.330Z,1.20
2019-03-13T14:08:18.053Z,1.53
2019-03-13T14:10:49.116Z,1.67
2019-03-13T14:13:18.913Z,1.33
2019-03-13T14:15:48.675Z,1.30
2019-03-13T14:18:18.879Z,1.33
2019-03-13T14:20:48.754Z,1.33
2019-03-13T14:23:18.544Z,1.53
2019-03-13T14:25:48.536Z,2.90
2019-03-13T14:28:18.349Z,1.73
2019-03-13T14:30:47.990Z,2.03
2019-03-13T14:33:18.304Z,2.27
2019-03-13T14:35:48.028Z,1.33
2019-03-13T14:38:17.925Z,2.43
2019-03-13T14:40:47.964Z,1.80
2019-03-13T14:43:17.727Z,1.80
2019-03-13T14:45:47.585Z,1.63
2019-03-13T14:48:17.713Z,1.80
2019-03-13T14:50:47.548Z,1.80
2019-03-13T14:53:17.312Z,1.83
2019-03-13T14:55:47.336Z,2.20
2019-03-13T14:58:17.079Z,2.40
2019-03-13T15:00:46.891Z,1.73
2019-03-13T15:03:17.902Z,2.63
2019-03-13T15:05:47.678Z,2.03
2019-03-13T15:08:17.584Z,1.80
2019-03-13T15:10:47.680Z,2.27
2019-03-13T15:13:17.411Z,1.83
2019-03-13T15:15:48.270Z,1.30
2019-03-13T15:18:18.421Z,1.90
2019-03-13T15:20:48.205Z,1.63
2019-03-13T15:23:18.030Z,1.83
2019-03-13T15:25:48.085Z,2.13
2019-03-13T15:28:17.788Z,1.60
2019-03-13T15:30:47.673Z,1.20
2019-03-13T15:33:18.842Z,1.10
2019-03-13T15:35:48.653Z,1.50
2019-03-13T15:38:18.473Z,1.20
2019-03-13T15:40:48.503Z,1.43
2019-03-13T15:43:18.221Z,1.93
2019-03-13T15:45:48.084Z,1.10
2019-03-13T15:48:18.163Z,2.10
2019-03-13T15:50:47.888Z,1.30
2019-03-13T15:53:17.607Z,1.30
2019-03-13T15:55:47.805Z,1.30
2019-03-13T15:58:17.699Z,0.93
2019-03-13T16:00:47.650Z,0.90
2019-03-13T16:03:18.808Z,0.60
2019-03-13T16:05:48.686Z,0.60
2019-03-13T16:08:18.431Z,0.60
2019-03-13T16:10:48.462Z,0.90
2019-03-13T16:13:18.266Z,0.63
2019-03-13T16:15:48.059Z,0.60
2019-03-13T16:20:54.184Z,1.00
2019-03-13T16:23:23.980Z,1.30
2019-03-13T16:26:12.770Z,1.77
2019-03-13T16:28:42.828Z,1.50
2019-03-13T16:31:31.699Z,1.40
2019-03-13T16:37:01.846Z,1.17
2019-03-13T16:39:50.615Z,0.60
2019-03-13T16:42:20.705Z,0.77
2019-03-13T16:45:10.120Z,0.70
2019-03-13T16:47:40.288Z,0.70
2019-03-13T16:52:52.737Z,0.50
2019-03-13T16:55:22.841Z,0.60
2019-03-13T16:57:52.696Z,1.00
2019-03-13T17:00:24.797Z,0.80
2019-03-13T17:02:54.944Z,0.90
2019-03-13T17:05:43.690Z,0.80
2019-03-13T17:08:32.527Z,0.80
2019-03-13T17:11:21.265Z,0.80
2019-03-13T17:17:00.607Z,0.70
2019-03-13T17:19:49.367Z,0.77
2019-03-13T17:22:38.171Z,1.03
2019-03-13T17:25:28.882Z,1.27
2019-03-13T17:27:59.045Z,0.70
2019-03-13T17:30:29.059Z,0.80
2019-03-13T17:33:19.246Z,1.03
2019-03-13T17:36:00.867Z,0.93
2019-03-13T17:38:30.814Z,1.10
2019-03-13T17:41:00.537Z,0.60
2019-03-13T17:43:39.296Z,0.73
2019-03-13T17:46:02.242Z,0.80
2019-03-13T17:48:50.940Z,1.13
2019-03-13T17:51:20.765Z,0.80
2019-03-13T17:54:09.726Z,1.10
2019-03-13T17:56:58.749Z,0.90
2019-03-13T17:59:47.527Z,1.00
2019-03-13T18:02:36.699Z,1.40
2019-03-13T18:05:07.214Z,1.50
2019-03-13T18:07:37.156Z,1.83
2019-03-13T18:10:08.589Z,1.33
2019-03-13T18:12:57.626Z,1.00
2019-03-13T18:15:46.462Z,1.40
2019-03-13T18:18:35.295Z,1.03
2019-03-13T18:21:05.228Z,1.07
2019-03-13T18:27:03.338Z,1.07
2019-03-13T18:29:33.431Z,1.27
2019-03-13T18:32:03.299Z,1.57
2019-03-13T18:34:52.020Z,1.30
2019-03-13T18:37:33.677Z,1.63
2019-03-13T18:40:15.289Z,1.60
2019-03-13T18:42:45.211Z,1.63
2019-03-13T18:45:17.601Z,1.30
2019-03-13T18:47:48.115Z,2.37
2019-03-13T18:50:18.204Z,1.70
2019-03-13T18:52:48.190Z,2.27
2019-03-13T18:55:18.995Z,2.07
2019-03-13T18:57:50.785Z,1.90
2019-03-13T19:00:25.897Z,1.70
2019-03-13T19:02:55.883Z,2.27
2019-03-13T19:05:25.655Z,1.73
2019-03-13T19:07:55.942Z,1.30
2019-03-13T19:10:26.111Z,1.40
2019-03-13T19:12:56.094Z,1.00
2019-03-13T19:15:27.861Z,1.10
2019-03-13T19:18:00.490Z,0.70
2019-03-13T19:20:29.606Z,0.80
2019-03-13T19:22:59.605Z,1.10
2019-03-13T19:25:29.571Z,1.40
2019-03-13T19:28:00.063Z,1.87
2019-03-13T19:30:30.980Z,1.20
2019-03-13T19:33:01.222Z,1.90
2019-03-13T19:35:31.622Z,1.87
2019-03-13T19:38:03.946Z,1.57
2019-03-13T19:40:33.435Z,1.70
2019-03-13T19:43:03.513Z,3.50
2019-03-13T19:45:38.603Z,1.90
2019-03-13T19:48:08.904Z,1.80
2019-03-13T19:50:38.829Z,1.17
2019-03-13T19:53:08.710Z,1.00
2019-03-13T19:55:38.755Z,1.33
2019-03-13T19:58:08.982Z,1.00
2019-03-13T20:00:39.162Z,1.30
2019-03-13T20:03:09.534Z,1.00
2019-03-13T20:12:08.193Z,1.47
2019-03-13T20:17:46.037Z,1.80
2019-03-13T20:20:35.078Z,1.90
2019-03-13T20:23:24.032Z,1.63
2019-03-13T20:25:54.093Z,1.80
2019-03-13T20:28:24.230Z,1.80
2019-03-13T20:30:54.584Z,2.10
2019-03-13T20:33:43.472Z,2.17
2019-03-13T20:36:13.705Z,2.97
2019-03-13T20:38:47.126Z,1.60
2019-03-13T20:41:16.719Z,2.70
2019-03-13T20:44:05.736Z,2.23
2019-03-13T20:46:36.113Z,1.83
2019-03-13T20:49:45.133Z,2.30
2019-03-13T20:52:15.606Z,2.20
2019-03-13T20:54:45.469Z,2.17
2019-03-13T21:00:25.016Z,1.10
2019-03-13T21:02:55.282Z,0.60
2019-03-13T21:05:44.275Z,0.60
2019-03-13T21:08:33.139Z,0.70
2019-03-13T21:11:03.659Z,0.53
2019-03-13T21:13:33.746Z,0.30
2019-03-13T21:16:22.625Z,0.30
2019-03-13T21:19:11.420Z,0.60
2019-03-13T21:22:00.351Z,0.77
2019-03-13T21:24:49.134Z,0.63
2019-03-13T21:27:38.392Z,0.93
2019-03-13T21:30:27.396Z,0.67
2019-03-13T21:32:58.072Z,0.90
2019-03-13T21:35:46.920Z,2.03
2019-03-13T21:38:17.396Z,0.60
2019-03-13T21:40:58.435Z,0.40
2019-03-13T21:43:40.108Z,0.30
2019-03-13T21:46:21.865Z,0.40
2019-03-13T21:49:03.666Z,0.50
2019-03-13T21:51:44.924Z,0.40
2019-03-13T21:54:15.220Z,0.30
2019-03-13T22:03:38.566Z,0.50
2019-03-13T22:06:28.995Z,0.60
2019-03-13T22:08:59.002Z,1.00
2019-03-13T22:14:50.184Z,0.40
2019-03-13T22:17:20.357Z,0.40
2019-03-13T22:19:50.300Z,0.60
2019-03-13T22:22:20.136Z,0.33
2019-03-13T22:24:50.310Z,0.30
2019-03-13T22:27:20.252Z,0.40
2019-03-13T22:29:50.042Z,0.33
2019-03-13T22:32:20.168Z,0.60
2019-03-13T22:34:49.947Z,0.50
2019-03-13T22:37:19.813Z,0.50
2019-03-13T22:39:49.950Z,0.50
2019-03-13T22:42:20.534Z,0.40
2019-03-13T22:44:50.337Z,0.90
2019-03-13T22:47:20.470Z,0.60
2019-03-13T22:49:50.215Z,0.60
2019-03-13T22:52:20.015Z,0.30
2019-03-13T22:54:50.119Z,0.70
2019-03-13T22:57:19.989Z,0.40
2019-03-13T22:59:49.847Z,0.70
2019-03-13T23:02:19.979Z,0.73
2019-03-13T23:04:49.882Z,1.07
2019-03-13T23:07:19.582Z,0.67
2019-03-13T23:09:49.767Z,0.80
2019-03-13T23:12:19.538Z,1.27
2019-03-13T23:14:49.312Z,1.20
2019-03-13T23:17:20.450Z,1.30
2019-03-13T23:19:50.108Z,2.00
2019-03-13T23:22:19.898Z,1.60
2019-03-13T23:24:50.015Z,1.70
2019-03-13T23:27:19.819Z,2.07
2019-03-13T23:29:49.660Z,1.90
2019-03-13T23:32:20.796Z,2.03
2019-03-13T23:34:50.503Z,1.90
2019-03-13T23:37:20.236Z,1.70
2019-03-13T23:39:50.270Z,1.87
2019-03-13T23:42:20.022Z,1.50
2019-03-13T23:44:49.832Z,1.73
2019-03-13T23:47:20.072Z,1.60
2019-03-13T23:49:49.846Z,1.53
2019-03-13T23:52:19.897Z,2.07
2019-03-13T23:54:49.943Z,1.70
2019-03-13T23:57:19.933Z,1.50
2019-03-13T23:59:49.732Z,1.23
